Time;durP1;ratioP1;P1;durP2;ratioP2;P2;SDS_P1;SDS_P2;PMS_P1;PMS_P2;Temp;Humidity;BMP_temperature;BMP_pressure;BME280_temperature;BME280_humidity;BME280_pressure;Samples;Min_cycle;Max_cycle;Signal;HPM_P1;HPM_P2
2022/07/17 00:02:24;;;;;;;;;;;19.40;57.80;;;;;;5053139;28;19974;-71
2022/07/17 00:04:49;;;;;;;;;;;19.40;58.00;;;;;;5052711;28;20000;-71
2022/07/17 00:07:15;;;;;;;;;;;19.30;57.70;;;;;;5059687;28;19923;-71
2022/07/17 00:09:40;;;;;;;;;;;19.30;57.90;;;;;;5053810;28;20328;-71
2022/07/17 00:12:06;;;;;;;;;;;19.30;58.10;;;;;;5049839;28;19920;-71
2022/07/17 00:14:33;;;;;;;;;;;19.20;58.00;;;;;;5057722;28;19909;-71
2022/07/17 00:16:58;;;;;;;;;;;19.20;58.00;;;;;;5060468;28;19912;-71
2022/07/17 00:19:24;;;;;;;;;;;19.20;58.30;;;;;;5056234;28;19912;-72
2022/07/17 00:21:50;;;;;;;;;;;19.20;58.20;;;;;;5061849;28;19916;-71
2022/07/17 00:24:19;;;;;;;;;;;19.20;58.30;;;;;;5063015;28;19973;-71
2022/07/17 00:26:49;;;;;;;;;;;19.10;58.30;;;;;;5064581;28;19912;-71
2022/07/17 00:29:15;;;;;;;;;;;19.10;58.50;;;;;;5052038;28;19956;-71
2022/07/17 00:31:40;;;;;;;;;;;19.10;58.40;;;;;;5059509;28;19959;-72
2022/07/17 00:34:06;;;;;;;;;;;19.00;58.50;;;;;;5058921;28;19981;-71
2022/07/17 00:36:32;;;;;;;;;;;19.00;58.60;;;;;;5062251;28;19913;-71
2022/07/17 00:38:57;;;;;;;;;;;19.00;58.60;;;;;;5055349;28;19920;-72
2022/07/17 00:41:23;;;;;;;;;;;19.00;58.80;;;;;;5055827;28;19951;-72
2022/07/17 00:43:48;;;;;;;;;;;19.00;58.80;;;;;;5064539;28;19999;-71
2022/07/17 00:46:14;;;;;;;;;;;18.90;58.80;;;;;;5056006;28;19924;-71
2022/07/17 00:48:39;;;;;;;;;;;18.90;59.40;;;;;;5060683;28;19962;-72
2022/07/17 00:51:05;;;;;;;;;;;18.90;59.20;;;;;;5054997;28;19922;-71
2022/07/17 00:53:33;;;;;;;;;;;18.80;58.80;;;;;;5051824;28;19917;-71
2022/07/17 00:56:00;;;;;;;;;;;18.80;59.40;;;;;;5049881;28;19971;-71
2022/07/17 00:58:26;;;;;;;;;;;18.80;59.10;;;;;;5046307;28;19934;-71
2022/07/17 01:00:53;;;;;;;;;;;18.80;59.30;;;;;;5044746;28;20674;-71
2022/07/17 01:03:20;;;;;;;;;;;18.80;59.20;;;;;;5050164;28;19912;-71
2022/07/17 01:05:46;;;;;;;;;;;18.80;59.20;;;;;;5061879;28;19916;-71
2022/07/17 01:08:11;;;;;;;;;;;18.70;59.50;;;;;;5053836;28;20646;-71
2022/07/17 01:10:38;;;;;;;;;;;18.70;59.70;;;;;;5064103;28;19917;-71
2022/07/17 01:13:04;;;;;;;;;;;18.70;59.90;;;;;;5054150;28;20015;-71
2022/07/17 01:15:30;;;;;;;;;;;18.60;59.80;;;;;;5053633;28;19996;-71
2022/07/17 01:17:56;;;;;;;;;;;18.60;59.90;;;;;;5053031;28;19909;-71
2022/07/17 01:20:22;;;;;;;;;;;18.60;60.10;;;;;;5061631;28;19912;-71
2022/07/17 01:22:49;;;;;;;;;;;18.60;60.00;;;;;;5046962;28;19913;-72
2022/07/17 01:25:15;;;;;;;;;;;18.60;60.40;;;;;;5062257;28;20296;-71
2022/07/17 01:27:41;;;;;;;;;;;18.60;60.30;;;;;;5068396;28;19919;-71
2022/07/17 01:30:06;;;;;;;;;;;18.50;60.50;;;;;;5050187;28;20576;-71
2022/07/17 01:32:33;;;;;;;;;;;18.50;60.60;;;;;;5058719;28;19912;-71
2022/07/17 01:34:59;;;;;;;;;;;18.50;60.70;;;;;;5055531;28;19997;-71
2022/07/17 01:37:24;;;;;;;;;;;18.50;60.80;;;;;;5061432;28;19919;-72
2022/07/17 01:39:53;;;;;;;;;;;18.40;60.70;;;;;;5065918;28;19917;-71
2022/07/17 01:42:18;;;;;;;;;;;18.40;60.50;;;;;;5052632;28;19913;-72
2022/07/17 01:44:44;;;;;;;;;;;18.40;60.80;;;;;;5059531;28;19927;-72
2022/07/17 01:47:11;;;;;;;;;;;18.40;61.00;;;;;;5060259;28;20419;-71
2022/07/17 01:49:37;;;;;;;;;;;18.40;61.20;;;;;;5059954;28;19951;-71
2022/07/17 01:52:03;;;;;;;;;;;18.40;61.20;;;;;;5064236;28;19975;-72
2022/07/17 01:54:31;;;;;;;;;;;18.30;61.10;;;;;;5053949;28;20450;-72
2022/07/17 01:56:57;;;;;;;;;;;18.30;61.30;;;;;;5059069;28;20020;-72
2022/07/17 01:59:22;;;;;;;;;;;18.30;61.40;;;;;;5064232;28;19995;-71
2022/07/17 02:01:48;;;;;;;;;;;18.30;61.40;;;;;;5058119;28;19951;-71
2022/07/17 02:04:13;;;;;;;;;;;18.20;61.30;;;;;;5056276;28;19963;-71
2022/07/17 02:06:39;;;;;;;;;;;18.20;61.30;;;;;;5061045;28;19952;-71
2022/07/17 02:09:04;;;;;;;;;;;18.20;61.40;;;;;;5058066;28;20012;-72
2022/07/17 02:11:30;;;;;;;;;;;18.20;61.50;;;;;;5060887;28;19939;-71
2022/07/17 02:13:55;;;;;;;;;;;18.20;61.60;;;;;;5057998;28;19913;-71
2022/07/17 02:16:21;;;;;;;;;;;18.10;61.60;;;;;;5060775;28;19959;-71
2022/07/17 02:18:46;;;;;;;;;;;18.20;61.60;;;;;;5064146;28;19962;-71
2022/07/17 02:21:12;;;;;;;;;;;18.10;61.60;;;;;;5060512;28;19913;-71
2022/07/17 02:23:37;;;;;;;;;;;18.10;61.70;;;;;;5057942;28;19909;-72
2022/07/17 02:26:03;;;;;;;;;;;18.10;61.70;;;;;;5060459;28;20458;-71
2022/07/17 02:28:28;;;;;;;;;;;18.10;61.80;;;;;;5061502;28;20501;-71
2022/07/17 02:30:54;;;;;;;;;;;18.10;61.70;;;;;;5067697;28;19912;-71
2022/07/17 02:33:19;;;;;;;;;;;18.10;61.80;;;;;;5056535;28;20422;-72
2022/07/17 02:35:45;;;;;;;;;;;18.00;61.90;;;;;;5056507;28;19912;-71
2022/07/17 02:38:10;;;;;;;;;;;18.00;61.90;;;;;;5063177;28;20399;-71
2022/07/17 02:40:36;;;;;;;;;;;18.00;61.90;;;;;;5067496;28;20009;-71
2022/07/17 02:43:02;;;;;;;;;;;18.00;62.00;;;;;;5053300;28;19917;-71
2022/07/17 02:45:27;;;;;;;;;;;18.00;62.00;;;;;;5058294;28;20512;-71
2022/07/17 02:47:54;;;;;;;;;;;17.90;61.90;;;;;;5054366;28;20012;-71
2022/07/17 02:50:20;;;;;;;;;;;17.90;62.00;;;;;;5058279;28;20268;-71
2022/07/17 02:52:46;;;;;;;;;;;17.90;62.00;;;;;;5065193;28;20389;-71
2022/07/17 02:55:11;;;;;;;;;;;17.90;62.10;;;;;;5055833;28;19923;-72
2022/07/17 02:57:37;;;;;;;;;;;17.80;62.10;;;;;;5054668;28;19913;-71
2022/07/17 03:00:04;;;;;;;;;;;17.90;62.20;;;;;;5057694;28;20377;-71
2022/07/17 03:02:30;;;;;;;;;;;17.80;62.10;;;;;;5062367;28;19916;-72
2022/07/17 03:04:55;;;;;;;;;;;17.80;62.20;;;;;;5063599;28;20008;-71
2022/07/17 03:07:21;;;;;;;;;;;17.80;62.30;;;;;;5053792;28;20356;-71
2022/07/17 03:09:46;;;;;;;;;;;17.80;62.20;;;;;;5053830;28;19919;-73
2022/07/17 03:12:12;;;;;;;;;;;17.80;62.30;;;;;;5058676;28;19917;-71
2022/07/17 03:14:37;;;;;;;;;;;17.70;62.30;;;;;;5049322;28;20490;-71
2022/07/17 03:17:03;;;;;;;;;;;17.70;62.40;;;;;;5062536;28;19947;-72
2022/07/17 03:19:28;;;;;;;;;;;17.70;62.50;;;;;;5053410;28;20561;-72
2022/07/17 03:21:54;;;;;;;;;;;17.70;62.50;;;;;;5059088;28;19912;-72
2022/07/17 03:24:19;;;;;;;;;;;17.70;62.60;;;;;;5047908;28;19924;-71
2022/07/17 03:26:45;;;;;;;;;;;17.70;62.60;;;;;;5061997;28;19952;-72
2022/07/17 03:29:10;;;;;;;;;;;17.70;62.70;;;;;;5058416;28;19926;-71
2022/07/17 03:31:36;;;;;;;;;;;17.70;62.60;;;;;;5048993;28;19941;-71
2022/07/17 03:34:01;;;;;;;;;;;17.60;62.60;;;;;;5051331;28;19913;-71
2022/07/17 03:36:27;;;;;;;;;;;17.60;62.60;;;;;;5060414;28;19939;-72
2022/07/17 03:38:52;;;;;;;;;;;17.60;62.70;;;;;;5063466;28;20312;-71
2022/07/17 03:41:18;;;;;;;;;;;17.60;62.80;;;;;;5054865;28;19913;-71
2022/07/17 03:43:43;;;;;;;;;;;17.50;62.70;;;;;;5066835;28;19908;-72
2022/07/17 03:46:09;;;;;;;;;;;17.50;62.80;;;;;;5056992;28;19924;-72
2022/07/17 03:48:36;;;;;;;;;;;17.50;62.80;;;;;;5052536;28;19922;-71
2022/07/17 03:51:01;;;;;;;;;;;17.50;62.80;;;;;;5052739;28;19962;-71
2022/07/17 03:53:27;;;;;;;;;;;17.50;62.90;;;;;;5054910;28;19916;-72
2022/07/17 03:55:52;;;;;;;;;;;17.40;62.90;;;;;;5058953;28;19913;-71
2022/07/17 03:58:18;;;;;;;;;;;17.40;62.90;;;;;;5049407;28;19915;-72
2022/07/17 04:00:44;;;;;;;;;;;17.40;62.80;;;;;;5054749;28;20423;-72
2022/07/17 04:03:09;;;;;;;;;;;17.40;63.00;;;;;;5054871;28;19916;-71
2022/07/17 04:05:34;;;;;;;;;;;17.40;63.00;;;;;;5063127;28;20579;-71
2022/07/17 04:08:00;;;;;;;;;;;17.40;63.10;;;;;;5052015;28;19912;-71
2022/07/17 04:10:25;;;;;;;;;;;17.40;63.10;;;;;;5057014;28;19916;-71
2022/07/17 04:12:51;;;;;;;;;;;17.40;63.10;;;;;;5054501;28;20003;-71
2022/07/17 04:15:49;;;;;;;;;;;17.40;63.30;;;;;;5058873;28;19922;-72
2022/07/17 04:18:02;;;;;;;;;;;17.40;63.10;;;;;;5053798;28;19919;-72
2022/07/17 04:20:28;;;;;;;;;;;17.30;63.20;;;;;;5062835;28;20262;-71
2022/07/17 04:22:54;;;;;;;;;;;17.30;63.20;;;;;;5056856;28;19912;-71
2022/07/17 04:25:19;;;;;;;;;;;17.30;63.30;;;;;;5053966;28;20314;-71
2022/07/17 04:27:45;;;;;;;;;;;17.30;63.30;;;;;;5056946;28;19919;-71
2022/07/17 04:30:10;;;;;;;;;;;17.30;63.30;;;;;;5053360;28;19908;-71
2022/07/17 04:32:36;;;;;;;;;;;17.30;63.40;;;;;;5063158;28;19973;-72
2022/07/17 04:35:02;;;;;;;;;;;17.30;63.40;;;;;;5054562;28;19917;-71
2022/07/17 04:37:28;;;;;;;;;;;17.30;63.40;;;;;;5058997;28;19913;-72
2022/07/17 04:39:53;;;;;;;;;;;17.30;63.40;;;;;;5057964;28;20388;-72
2022/07/17 04:42:19;;;;;;;;;;;17.30;63.50;;;;;;5053047;28;20015;-71
2022/07/17 04:44:44;;;;;;;;;;;17.30;63.40;;;;;;5061714;28;20670;-72
2022/07/17 04:47:10;;;;;;;;;;;17.30;63.50;;;;;;5055455;28;19912;-72
2022/07/17 04:49:35;;;;;;;;;;;17.30;63.60;;;;;;5052533;28;19916;-72
2022/07/17 04:52:01;;;;;;;;;;;17.30;63.50;;;;;;5048987;28;19920;-72
2022/07/17 04:54:26;;;;;;;;;;;17.20;63.50;;;;;;5060051;28;20337;-71
2022/07/17 04:56:52;;;;;;;;;;;17.20;63.50;;;;;;5046304;28;19917;-72
2022/07/17 04:59:17;;;;;;;;;;;17.20;63.60;;;;;;5058056;28;19912;-71
2022/07/17 05:01:42;;;;;;;;;;;17.20;63.60;;;;;;5049814;28;19912;-71
2022/07/17 05:04:08;;;;;;;;;;;17.20;63.70;;;;;;5057048;28;19912;-71
2022/07/17 05:06:34;;;;;;;;;;;17.20;63.70;;;;;;5062527;28;20652;-72
2022/07/17 05:08:59;;;;;;;;;;;17.20;63.70;;;;;;5060806;28;19920;-71
2022/07/17 05:11:25;;;;;;;;;;;17.20;63.70;;;;;;5062323;28;20273;-72
2022/07/17 05:13:50;;;;;;;;;;;17.20;63.70;;;;;;5056900;28;19919;-72
2022/07/17 05:16:16;;;;;;;;;;;17.20;63.80;;;;;;5057470;28;19913;-71
2022/07/17 05:18:41;;;;;;;;;;;17.20;63.90;;;;;;5060798;28;20007;-72
2022/07/17 05:21:07;;;;;;;;;;;17.20;63.80;;;;;;5054024;28;19999;-72
2022/07/17 05:23:32;;;;;;;;;;;17.20;64.00;;;;;;5053263;28;19955;-72
2022/07/17 05:25:58;;;;;;;;;;;17.20;63.90;;;;;;5058665;28;19923;-71
2022/07/17 05:28:23;;;;;;;;;;;17.20;63.90;;;;;;5063008;28;20011;-71
2022/07/17 05:30:49;;;;;;;;;;;17.20;63.80;;;;;;5063572;28;19921;-72
2022/07/17 05:33:14;;;;;;;;;;;17.10;63.90;;;;;;5058746;28;19940;-71
2022/07/17 05:35:40;;;;;;;;;;;17.20;64.00;;;;;;5059744;28;20425;-72
2022/07/17 05:38:06;;;;;;;;;;;17.20;63.90;;;;;;5057621;28;20560;-71
2022/07/17 05:40:31;;;;;;;;;;;17.10;63.80;;;;;;5057708;28;19912;-72
2022/07/17 05:42:58;;;;;;;;;;;17.20;64.10;;;;;;5056856;28;19912;-72
2022/07/17 05:45:23;;;;;;;;;;;17.20;64.00;;;;;;5049426;28;19917;-71
2022/07/17 05:47:49;;;;;;;;;;;17.20;64.00;;;;;;5062724;28;19909;-72
2022/07/17 05:50:14;;;;;;;;;;;17.10;63.90;;;;;;5062407;28;19912;-72
2022/07/17 05:52:40;;;;;;;;;;;17.20;63.90;;;;;;5050705;28;19925;-72
2022/07/17 05:55:05;;;;;;;;;;;17.20;64.10;;;;;;5054115;28;20003;-73
2022/07/17 05:57:31;;;;;;;;;;;17.20;64.00;;;;;;5052114;28;19923;-72
2022/07/17 05:59:56;;;;;;;;;;;17.20;63.90;;;;;;5055457;28;20645;-72
2022/07/17 06:02:22;;;;;;;;;;;17.20;63.80;;;;;;5061040;28;19963;-72
2022/07/17 06:04:47;;;;;;;;;;;17.10;63.50;;;;;;5050245;28;19909;-72
2022/07/17 06:07:13;;;;;;;;;;;17.10;63.60;;;;;;5065277;28;19931;-73
2022/07/17 06:09:38;;;;;;;;;;;17.10;63.60;;;;;;5060511;28;19908;-71
2022/07/17 06:12:04;;;;;;;;;;;17.10;63.70;;;;;;5056033;28;19916;-72
2022/07/17 06:14:29;;;;;;;;;;;17.10;63.70;;;;;;5062364;28;19986;-72
2022/07/17 06:16:55;;;;;;;;;;;17.10;63.60;;;;;;5057146;28;19912;-72
2022/07/17 06:19:20;;;;;;;;;;;17.10;63.70;;;;;;5061604;28;19928;-72
2022/07/17 06:21:46;;;;;;;;;;;17.10;63.70;;;;;;5057230;28;20022;-72
2022/07/17 06:24:11;;;;;;;;;;;17.10;63.70;;;;;;5059687;28;19913;-71
2022/07/17 06:26:37;;;;;;;;;;;17.10;63.70;;;;;;5068088;28;19920;-72
2022/07/17 06:29:02;;;;;;;;;;;17.10;63.60;;;;;;5066705;28;19913;-72
2022/07/17 06:31:28;;;;;;;;;;;17.20;63.70;;;;;;5058226;28;20387;-72
2022/07/17 06:33:53;;;;;;;;;;;17.20;63.70;;;;;;5063298;28;19909;-71
2022/07/17 06:36:19;;;;;;;;;;;17.20;63.60;;;;;;5060518;28;19924;-72
2022/07/17 06:38:44;;;;;;;;;;;17.20;63.70;;;;;;5058240;28;19931;-72
2022/07/17 06:41:10;;;;;;;;;;;17.20;63.70;;;;;;5051388;28;19960;-72
2022/07/17 06:43:35;;;;;;;;;;;17.20;63.60;;;;;;5050491;28;19948;-72
2022/07/17 06:46:01;;;;;;;;;;;17.20;63.60;;;;;;5059846;28;20003;-72
2022/07/17 06:48:27;;;;;;;;;;;17.20;63.60;;;;;;5056125;28;19924;-72
2022/07/17 06:50:52;;;;;;;;;;;17.20;63.60;;;;;;5059092;28;20094;-72
2022/07/17 06:53:18;;;;;;;;;;;17.20;63.60;;;;;;5053292;28;19912;-72
2022/07/17 06:55:43;;;;;;;;;;;17.30;63.60;;;;;;5064491;28;19912;-72
2022/07/17 06:58:09;;;;;;;;;;;17.30;63.50;;;;;;5063589;28;19997;-72
2022/07/17 07:00:34;;;;;;;;;;;17.30;63.50;;;;;;5060885;28;20054;-72
2022/07/17 07:03:00;;;;;;;;;;;17.30;63.40;;;;;;5063408;28;19916;-72
2022/07/17 07:05:25;;;;;;;;;;;17.30;63.40;;;;;;5061506;28;20265;-72
2022/07/17 07:07:51;;;;;;;;;;;17.30;63.40;;;;;;5052805;28;19913;-72
2022/07/17 07:10:16;;;;;;;;;;;17.40;63.50;;;;;;5057602;28;20395;-72
2022/07/17 07:12:42;;;;;;;;;;;17.40;63.60;;;;;;5048378;28;19920;-72
2022/07/17 07:15:08;;;;;;;;;;;17.40;63.40;;;;;;5055864;28;19920;-72
2022/07/17 07:17:34;;;;;;;;;;;17.40;63.40;;;;;;5057644;28;20349;-72
2022/07/17 07:20:00;;;;;;;;;;;17.40;63.40;;;;;;5058195;28;19923;-72
2022/07/17 07:22:26;;;;;;;;;;;17.40;63.30;;;;;;5059757;28;19941;-72
2022/07/17 07:24:51;;;;;;;;;;;17.40;63.20;;;;;;5051996;28;20693;-72
2022/07/17 07:27:17;;;;;;;;;;;17.50;63.30;;;;;;5054716;28;19917;-72
2022/07/17 07:29:42;;;;;;;;;;;17.50;63.20;;;;;;5061190;28;20398;-72
2022/07/17 07:32:08;;;;;;;;;;;17.50;63.20;;;;;;5056496;28;20501;-72
2022/07/17 07:34:33;;;;;;;;;;;17.50;63.10;;;;;;5056917;28;20313;-72
2022/07/17 07:36:59;;;;;;;;;;;17.50;62.90;;;;;;5065477;28;19919;-72
2022/07/17 07:39:24;;;;;;;;;;;17.60;63.00;;;;;;5053486;28;19912;-72
2022/07/17 07:41:50;;;;;;;;;;;17.60;62.90;;;;;;5048814;28;19913;-72
2022/07/17 07:44:15;;;;;;;;;;;17.70;62.90;;;;;;5062809;28;19931;-72
2022/07/17 07:46:41;;;;;;;;;;;17.60;62.80;;;;;;5058668;28;20031;-72
2022/07/17 07:49:06;;;;;;;;;;;17.70;62.80;;;;;;5051107;28;20739;-72
2022/07/17 07:51:32;;;;;;;;;;;17.70;62.70;;;;;;5058057;28;19916;-72
2022/07/17 07:53:57;;;;;;;;;;;17.70;62.60;;;;;;5050982;28;19920;-73
2022/07/17 07:56:23;;;;;;;;;;;17.70;62.60;;;;;;5049404;28;20482;-72
2022/07/17 07:58:48;;;;;;;;;;;17.80;62.50;;;;;;5057537;28;19915;-72
2022/07/17 08:01:14;;;;;;;;;;;17.80;62.50;;;;;;5053744;28;19999;-72
2022/07/17 08:03:39;;;;;;;;;;;17.80;62.50;;;;;;5062626;28;20227;-73
2022/07/17 08:06:05;;;;;;;;;;;17.80;62.30;;;;;;5055542;28;19920;-72
2022/07/17 08:08:30;;;;;;;;;;;17.90;62.30;;;;;;5052373;28;19920;-72
2022/07/17 08:10:56;;;;;;;;;;;17.90;62.20;;;;;;5060431;28;19916;-73
2022/07/17 08:13:21;;;;;;;;;;;17.90;62.20;;;;;;5053619;28;19913;-73
2022/07/17 08:15:47;;;;;;;;;;;17.90;62.10;;;;;;5057935;28;20019;-72
2022/07/17 08:18:12;;;;;;;;;;;18.00;62.10;;;;;;5063549;28;19966;-73
2022/07/17 08:20:38;;;;;;;;;;;18.00;61.90;;;;;;5061493;28;19986;-72
2022/07/17 08:23:03;;;;;;;;;;;18.00;61.90;;;;;;5054980;28;20373;-72
2022/07/17 08:25:29;;;;;;;;;;;18.00;61.70;;;;;;5056550;28;19916;-72
2022/07/17 08:27:55;;;;;;;;;;;18.00;61.60;;;;;;5061892;28;19908;-72
2022/07/17 08:30:20;;;;;;;;;;;18.10;61.60;;;;;;5062995;28;20160;-73
2022/07/17 08:32:46;;;;;;;;;;;18.10;61.40;;;;;;5060517;28;19985;-73
2022/07/17 08:35:11;;;;;;;;;;;18.20;61.40;;;;;;5063377;28;20019;-73
2022/07/17 08:37:44;;;;;;;;;;;18.20;61.40;;;;;;5057005;28;20032;-73
2022/07/17 08:40:15;;;;;;;;;;;18.20;61.30;;;;;;5054146;28;19959;-73
2022/07/17 08:42:42;;;;;;;;;;;18.30;61.30;;;;;;5055057;28;19982;-72
2022/07/17 08:45:08;;;;;;;;;;;18.30;61.30;;;;;;5057276;28;19920;-72
2022/07/17 08:47:34;;;;;;;;;;;18.30;61.20;;;;;;5063236;28;19912;-73
2022/07/17 08:50:01;;;;;;;;;;;18.30;61.10;;;;;;5055710;28;20554;-72
2022/07/17 08:52:27;;;;;;;;;;;18.40;61.20;;;;;;5055813;28;19916;-72
2022/07/17 08:54:52;;;;;;;;;;;18.40;61.00;;;;;;5059602;28;20297;-72
2022/07/17 08:57:18;;;;;;;;;;;18.40;60.90;;;;;;5055802;28;19957;-72
2022/07/17 08:59:46;;;;;;;;;;;18.50;60.90;;;;;;5049805;28;20465;-72
2022/07/17 09:02:12;;;;;;;;;;;18.50;60.80;;;;;;5048710;28;20736;-72
2022/07/17 09:04:38;;;;;;;;;;;18.60;60.80;;;;;;5050762;28;19917;-72
2022/07/17 09:07:04;;;;;;;;;;;18.60;60.60;;;;;;5063037;28;20286;-72
2022/07/17 09:09:30;;;;;;;;;;;18.60;60.70;;;;;;5052161;28;19954;-72
2022/07/17 09:11:58;;;;;;;;;;;18.60;60.60;;;;;;5058803;28;20273;-72
2022/07/17 09:14:24;;;;;;;;;;;18.70;60.50;;;;;;5055866;28;19920;-72
2022/07/17 09:16:51;;;;;;;;;;;18.70;60.50;;;;;;5047687;28;20489;-72
2022/07/17 09:19:25;;;;;;;;;;;18.70;60.40;;;;;;5051463;28;19919;-72
2022/07/17 09:21:51;;;;;;;;;;;18.80;60.30;;;;;;5045883;28;19913;-72
2022/07/17 09:24:16;;;;;;;;;;;18.80;60.10;;;;;;5046079;28;19932;-72
2022/07/17 09:26:45;;;;;;;;;;;18.90;60.10;;;;;;5055202;28;20527;-73
2022/07/17 09:29:14;;;;;;;;;;;18.90;60.00;;;;;;5048886;28;19986;-72
2022/07/17 09:31:40;;;;;;;;;;;19.00;60.00;;;;;;5061931;28;19916;-73
2022/07/17 09:34:15;;;;;;;;;;;19.00;59.80;;;;;;5053137;28;19920;-73
2022/07/17 09:36:41;;;;;;;;;;;19.10;59.70;;;;;;5061369;28;19948;-73
2022/07/17 09:39:06;;;;;;;;;;;19.10;59.70;;;;;;5059039;28;19951;-73
2022/07/17 09:41:33;;;;;;;;;;;19.20;59.70;;;;;;5048005;28;20678;-72
2022/07/17 09:44:00;;;;;;;;;;;19.20;59.60;;;;;;5055298;28;19909;-72
2022/07/17 09:46:27;;;;;;;;;;;19.30;59.50;;;;;;5050862;28;19944;-72
2022/07/17 09:48:54;;;;;;;;;;;19.30;59.40;;;;;;5063492;28;19913;-72
2022/07/17 09:51:19;;;;;;;;;;;19.30;59.40;;;;;;5050127;28;19913;-73
2022/07/17 09:53:48;;;;;;;;;;;19.40;59.40;;;;;;5057206;28;19982;-73
2022/07/17 09:56:15;;;;;;;;;;;19.40;59.30;;;;;;5063363;28;19973;-73
2022/07/17 09:58:42;;;;;;;;;;;19.50;59.20;;;;;;5060162;28;19960;-73
2022/07/17 10:01:08;;;;;;;;;;;19.50;59.10;;;;;;5062641;28;20738;-73
2022/07/17 10:03:34;;;;;;;;;;;19.60;59.00;;;;;;5066679;28;19912;-73
2022/07/17 10:06:01;;;;;;;;;;;19.60;59.00;;;;;;5054916;28;19913;-74
2022/07/17 10:08:27;;;;;;;;;;;19.70;58.90;;;;;;5060609;28;19909;-73
2022/07/17 10:10:52;;;;;;;;;;;19.70;58.90;;;;;;5058486;28;19938;-73
2022/07/17 10:13:19;;;;;;;;;;;19.80;59.40;;;;;;5048330;28;19912;-73
2022/07/17 10:15:45;;;;;;;;;;;19.90;58.90;;;;;;5061480;28;19915;-73
2022/07/17 10:18:10;;;;;;;;;;;20.00;58.80;;;;;;5064674;28;19913;-73
2022/07/17 10:20:36;;;;;;;;;;;20.00;58.70;;;;;;5048973;28;19959;-73
2022/07/17 10:23:11;;;;;;;;;;;20.10;58.70;;;;;;5061081;28;19914;-73
2022/07/17 10:25:36;;;;;;;;;;;20.10;58.70;;;;;;5054600;28;19919;-73
2022/07/17 10:28:02;;;;;;;;;;;20.20;58.70;;;;;;5052762;28;19913;-73
2022/07/17 10:30:28;;;;;;;;;;;20.30;58.80;;;;;;5046719;28;19916;-73
2022/07/17 10:32:58;;;;;;;;;;;20.40;58.70;;;;;;5048055;28;20818;-73
2022/07/17 10:35:24;;;;;;;;;;;20.40;58.80;;;;;;5051904;28;19913;-73
2022/07/17 10:37:50;;;;;;;;;;;20.50;58.80;;;;;;5064222;28;20293;-73
2022/07/17 10:40:21;;;;;;;;;;;20.60;58.80;;;;;;5044738;28;19947;-74
2022/07/17 10:42:47;;;;;;;;;;;20.70;58.30;;;;;;5046149;28;20030;-73
2022/07/17 10:45:14;;;;;;;;;;;20.70;59.30;;;;;;5045750;28;19920;-73
2022/07/17 10:48:08;;;;;;;;;;;20.80;58.70;;;;;;5047032;28;20553;-73
2022/07/17 10:50:36;;;;;;;;;;;20.90;58.60;;;;;;5048248;28;20007;-74
2022/07/17 10:53:10;;;;;;;;;;;21.10;58.50;;;;;;5065729;28;19912;-73
2022/07/17 10:55:37;;;;;;;;;;;21.20;58.20;;;;;;5054467;28;20250;-73
2022/07/17 10:58:03;;;;;;;;;;;21.30;58.50;;;;;;5053038;28;19913;-73
2022/07/17 11:00:29;;;;;;;;;;;21.40;58.40;;;;;;5046211;28;19912;-74
2022/07/17 11:02:54;;;;;;;;;;;21.50;58.50;;;;;;5059378;28;20332;-74
2022/07/17 11:05:20;;;;;;;;;;;21.60;58.40;;;;;;5055895;28;19912;-73
2022/07/17 11:07:50;;;;;;;;;;;21.80;58.40;;;;;;5054430;28;19913;-73
2022/07/17 11:10:16;;;;;;;;;;;21.80;58.40;;;;;;5051701;28;20568;-73
2022/07/17 11:12:41;;;;;;;;;;;22.00;58.60;;;;;;5048288;28;19951;-73
2022/07/17 11:15:07;;;;;;;;;;;22.10;58.30;;;;;;5049294;28;19916;-73
2022/07/17 11:17:32;;;;;;;;;;;22.20;58.40;;;;;;5058698;28;20008;-74
2022/07/17 11:19:58;;;;;;;;;;;22.30;58.30;;;;;;5065016;28;20534;-73
2022/07/17 11:22:24;;;;;;;;;;;22.40;58.40;;;;;;5065085;28;20576;-73
2022/07/17 11:24:50;;;;;;;;;;;22.60;58.20;;;;;;5055886;28;19917;-73
2022/07/17 11:27:18;;;;;;;;;;;22.60;57.90;;;;;;5054002;28;20417;-73
2022/07/17 11:29:44;;;;;;;;;;;22.70;58.00;;;;;;5047192;28;19915;-73
2022/07/17 11:32:09;;;;;;;;;;;22.80;58.10;;;;;;5061843;28;19924;-73
2022/07/17 11:34:35;;;;;;;;;;;22.90;57.90;;;;;;5055787;28;19947;-73
2022/07/17 11:37:01;;;;;;;;;;;22.90;57.70;;;;;;5056058;28;19995;-73
2022/07/17 11:39:36;;;;;;;;;;;23.10;57.60;;;;;;5062197;28;19925;-73
2022/07/17 11:42:02;;;;;;;;;;;23.20;57.50;;;;;;5064783;28;19913;-73
2022/07/17 11:44:27;;;;;;;;;;;23.30;57.40;;;;;;5062791;28;19912;-73
2022/07/17 11:46:53;;;;;;;;;;;23.40;57.70;;;;;;5064075;28;19966;-73
2022/07/17 11:49:25;;;;;;;;;;;23.40;57.60;;;;;;5055206;28;20617;-73
2022/07/17 11:51:51;;;;;;;;;;;23.50;57.50;;;;;;5046063;28;19936;-74
2022/07/17 11:54:17;;;;;;;;;;;23.60;57.50;;;;;;5046527;28;19921;-73
2022/07/17 11:56:50;;;;;;;;;;;23.70;57.40;;;;;;5052470;28;20327;-73
2022/07/17 11:59:22;;;;;;;;;;;23.70;57.40;;;;;;5060214;28;20033;-73
2022/07/17 12:01:48;;;;;;;;;;;23.90;57.50;;;;;;5048398;28;19917;-73
2022/07/17 12:04:14;;;;;;;;;;;23.90;57.30;;;;;;5060220;28;19916;-73
2022/07/17 12:06:40;;;;;;;;;;;24.00;57.20;;;;;;5055533;28;19917;-73
2022/07/17 12:09:06;;;;;;;;;;;24.10;57.20;;;;;;5054948;28;19918;-73
2022/07/17 12:11:32;;;;;;;;;;;24.20;57.20;;;;;;5056413;28;19917;-73
2022/07/17 12:14:06;;;;;;;;;;;24.20;57.10;;;;;;5059773;28;19913;-73
2022/07/17 12:16:34;;;;;;;;;;;24.30;57.10;;;;;;5057086;28;20377;-73
2022/07/17 12:19:03;;;;;;;;;;;24.40;57.10;;;;;;5052344;28;19920;-74
2022/07/17 12:21:29;;;;;;;;;;;24.50;57.40;;;;;;5050923;28;19912;-73
2022/07/17 12:24:04;;;;;;;;;;;24.50;57.30;;;;;;5048732;28;19965;-73
2022/07/17 12:26:30;;;;;;;;;;;24.60;57.20;;;;;;5058228;28;20417;-73
2022/07/17 12:28:56;;;;;;;;;;;24.70;57.20;;;;;;5043313;28;20526;-73
2022/07/17 12:31:23;;;;;;;;;;;24.70;57.30;;;;;;5058563;28;19974;-73
2022/07/17 12:33:50;;;;;;;;;;;24.80;57.30;;;;;;5063043;28;19912;-73
2022/07/17 12:36:15;;;;;;;;;;;24.90;57.10;;;;;;5063050;28;20647;-73
2022/07/17 12:38:41;;;;;;;;;;;25.00;57.30;;;;;;5055894;28;19916;-73
2022/07/17 12:41:06;;;;;;;;;;;25.00;57.30;;;;;;5051677;28;19982;-73
2022/07/17 12:43:32;;;;;;;;;;;25.00;57.00;;;;;;5057750;28;19917;-74
2022/07/17 12:45:57;;;;;;;;;;;25.10;57.20;;;;;;5061593;28;19966;-73
2022/07/17 12:48:23;;;;;;;;;;;25.20;56.80;;;;;;5059851;28;19916;-73
2022/07/17 12:50:48;;;;;;;;;;;25.30;57.40;;;;;;5048381;28;20011;-73
2022/07/17 12:53:14;;;;;;;;;;;25.30;57.10;;;;;;5048314;28;20375;-73
2022/07/17 12:55:40;;;;;;;;;;;25.40;56.90;;;;;;5045719;28;20377;-73
2022/07/17 12:58:05;;;;;;;;;;;25.50;56.80;;;;;;5044377;28;19913;-73
2022/07/17 13:00:31;;;;;;;;;;;25.60;56.80;;;;;;5049972;28;19913;-73
2022/07/17 13:02:57;;;;;;;;;;;25.60;56.80;;;;;;5061389;28;20348;-73
2022/07/17 13:05:23;;;;;;;;;;;25.70;56.70;;;;;;5057956;28;19919;-73
2022/07/17 13:07:49;;;;;;;;;;;25.80;56.60;;;;;;5055762;28;19909;-72
2022/07/17 13:10:14;;;;;;;;;;;25.80;56.70;;;;;;5049022;28;19958;-73
2022/07/17 13:12:40;;;;;;;;;;;25.90;56.60;;;;;;5044369;28;19917;-73
2022/07/17 13:15:05;;;;;;;;;;;26.00;56.50;;;;;;5057789;28;19917;-73
2022/07/17 13:17:31;;;;;;;;;;;26.00;56.40;;;;;;5063110;28;19948;-73
2022/07/17 13:19:56;;;;;;;;;;;26.10;56.20;;;;;;5062703;28;20003;-72
2022/07/17 13:22:22;;;;;;;;;;;26.20;56.20;;;;;;5063802;28;19952;-72
2022/07/17 13:24:47;;;;;;;;;;;26.20;56.40;;;;;;5061259;28;19913;-72
2022/07/17 13:27:13;;;;;;;;;;;26.30;56.20;;;;;;5048489;28;20053;-72
2022/07/17 13:29:39;;;;;;;;;;;26.40;57.00;;;;;;5044904;28;19912;-72
2022/07/17 13:32:04;;;;;;;;;;;26.40;56.00;;;;;;5044596;28;19920;-72
2022/07/17 13:34:30;;;;;;;;;;;26.50;56.10;;;;;;5050229;28;19916;-72
2022/07/17 13:36:56;;;;;;;;;;;26.50;55.80;;;;;;5061218;28;20344;-73
2022/07/17 13:39:21;;;;;;;;;;;26.60;56.00;;;;;;5057343;28;20027;-73
2022/07/17 13:41:47;;;;;;;;;;;26.70;56.00;;;;;;5063207;28;19990;-73
2022/07/17 13:44:13;;;;;;;;;;;26.70;55.30;;;;;;5055730;28;19913;-73
2022/07/17 13:46:39;;;;;;;;;;;26.70;55.90;;;;;;5044611;28;19921;-72
2022/07/17 13:49:04;;;;;;;;;;;26.70;56.20;;;;;;5044445;28;19913;-73
2022/07/17 13:51:30;;;;;;;;;;;26.80;56.00;;;;;;5049628;28;19921;-73
2022/07/17 13:53:56;;;;;;;;;;;26.90;55.90;;;;;;5044658;28;19919;-72
2022/07/17 13:56:22;;;;;;;;;;;27.00;55.80;;;;;;5058642;28;20623;-72
2022/07/17 13:58:48;;;;;;;;;;;27.00;55.70;;;;;;5063138;28;19919;-72
2022/07/17 14:01:14;;;;;;;;;;;27.10;55.80;;;;;;5063006;28;19912;-73
2022/07/17 14:03:39;;;;;;;;;;;27.10;55.50;;;;;;5059100;28;19917;-72
2022/07/17 14:06:05;;;;;;;;;;;27.20;55.70;;;;;;5054885;28;19912;-72
2022/07/17 14:08:30;;;;;;;;;;;27.20;55.50;;;;;;5060822;28;19959;-72
2022/07/17 14:10:56;;;;;;;;;;;27.30;55.20;;;;;;5059650;28;19912;-72